createdAt,value
2022-08-31T00:00:37.655Z,17.10
2022-08-31T00:03:24.774Z,17.00
2022-08-31T00:05:58.630Z,17.10
2022-08-31T00:08:28.000Z,17.10
2022-08-31T00:10:56.559Z,17.10
2022-08-31T00:13:27.708Z,17.00
2022-08-31T00:15:59.080Z,17.00
2022-08-31T00:18:30.173Z,17.00
2022-08-31T00:20:58.611Z,16.90
2022-08-31T00:23:27.262Z,17.00
2022-08-31T00:25:55.919Z,17.00
2022-08-31T00:28:24.505Z,17.00
2022-08-31T00:30:53.245Z,16.90
2022-08-31T00:33:23.031Z,16.90
2022-08-31T00:35:51.534Z,16.90
2022-08-31T00:38:19.965Z,16.90
2022-08-31T00:40:49.419Z,16.90
2022-08-31T00:43:39.771Z,16.90
2022-08-31T00:46:09.757Z,16.90
2022-08-31T00:48:45.750Z,16.80
2022-08-31T00:51:18.989Z,16.80
2022-08-31T00:53:48.842Z,16.80
2022-08-31T00:56:20.100Z,16.70
2022-08-31T00:58:54.308Z,16.70
2022-08-31T01:01:24.422Z,16.70
2022-08-31T01:03:54.423Z,16.60
2022-08-31T01:06:23.978Z,16.50
2022-08-31T01:08:55.100Z,16.50
2022-08-31T01:11:23.835Z,16.50
2022-08-31T01:13:52.734Z,16.50
2022-08-31T01:16:25.127Z,16.40
2022-08-31T01:18:59.609Z,16.50
2022-08-31T01:21:32.417Z,16.50
2022-08-31T01:24:03.667Z,16.50
2022-08-31T01:26:34.387Z,16.50
2022-08-31T01:29:06.899Z,16.50
2022-08-31T01:31:43.379Z,16.50
2022-08-31T01:34:12.229Z,16.50
2022-08-31T01:36:43.209Z,16.50
2022-08-31T01:39:13.191Z,16.50
2022-08-31T01:41:44.230Z,16.50
2022-08-31T01:44:13.815Z,16.50
2022-08-31T01:46:43.444Z,16.60
2022-08-31T01:49:12.207Z,16.60
2022-08-31T01:51:41.126Z,16.60
2022-08-31T01:54:10.267Z,16.70
2022-08-31T01:56:43.244Z,16.60
2022-08-31T01:59:19.255Z,16.70
2022-08-31T02:01:50.419Z,16.70
2022-08-31T02:04:20.943Z,16.60
2022-08-31T02:06:53.437Z,16.60
2022-08-31T02:09:22.849Z,16.60
2022-08-31T02:11:53.085Z,16.50
2022-08-31T02:14:22.388Z,16.50
2022-08-31T02:16:51.365Z,16.50
2022-08-31T02:19:19.958Z,16.50
2022-08-31T02:21:48.495Z,16.40
2022-08-31T02:24:16.943Z,16.40
2022-08-31T02:26:45.524Z,16.40
2022-08-31T02:29:15.425Z,16.40
2022-08-31T02:31:43.942Z,16.40
2022-08-31T02:34:14.158Z,16.40
2022-08-31T02:36:42.905Z,16.40
2022-08-31T02:39:11.407Z,16.50
2022-08-31T02:41:39.895Z,16.50
2022-08-31T02:44:08.658Z,16.40
2022-08-31T02:46:38.676Z,16.40
2022-08-31T02:49:36.031Z,16.40
2022-08-31T02:52:05.175Z,16.40
2022-08-31T02:54:33.758Z,16.40
2022-08-31T02:57:02.817Z,16.40
2022-08-31T02:59:31.300Z,16.40
2022-08-31T03:02:01.619Z,16.40
2022-08-31T03:04:31.036Z,16.40
2022-08-31T03:06:59.555Z,16.40
2022-08-31T03:09:28.063Z,16.40
2022-08-31T03:11:56.506Z,16.40
2022-08-31T03:14:24.945Z,16.50
2022-08-31T03:16:54.213Z,16.50
2022-08-31T03:19:24.131Z,16.50
2022-08-31T03:21:55.897Z,16.40
2022-08-31T03:24:27.208Z,16.40
2022-08-31T03:26:56.730Z,16.40
2022-08-31T03:29:25.657Z,16.40
2022-08-31T03:32:17.369Z,16.40
2022-08-31T03:34:53.698Z,16.30
2022-08-31T03:37:22.537Z,16.20
2022-08-31T03:39:51.790Z,16.20
2022-08-31T03:42:20.877Z,16.10
2022-08-31T03:44:49.570Z,16.10
2022-08-31T03:47:23.727Z,16.10
2022-08-31T03:49:58.789Z,16.10
2022-08-31T03:52:32.934Z,16.10
2022-08-31T03:55:03.781Z,16.10
2022-08-31T03:57:32.933Z,16.10
2022-08-31T04:00:01.701Z,16.00
2022-08-31T04:02:42.259Z,16.00
2022-08-31T04:05:32.159Z,16.00
2022-08-31T04:08:00.856Z,15.90
2022-08-31T04:10:50.317Z,15.90
2022-08-31T04:13:42.503Z,15.80
2022-08-31T04:16:29.800Z,15.80
2022-08-31T04:19:24.994Z,15.70
2022-08-31T04:22:03.177Z,15.70
2022-08-31T04:24:36.951Z,15.80
2022-08-31T04:27:05.864Z,15.70
2022-08-31T04:29:34.339Z,15.70
2022-08-31T04:32:02.786Z,15.70
2022-08-31T04:34:31.559Z,15.70
2022-08-31T04:37:00.053Z,15.70
2022-08-31T04:39:33.995Z,15.70
2022-08-31T04:42:02.837Z,15.70
2022-08-31T04:44:33.589Z,15.80
2022-08-31T04:47:03.219Z,15.80
2022-08-31T04:49:31.698Z,15.80
2022-08-31T04:52:01.378Z,15.90
2022-08-31T04:54:32.982Z,15.90
2022-08-31T04:57:02.023Z,15.90
2022-08-31T04:59:33.989Z,16.00
2022-08-31T05:02:38.256Z,16.00
2022-08-31T05:05:15.792Z,16.10
2022-08-31T05:07:44.925Z,16.20
2022-08-31T05:10:15.348Z,16.20
2022-08-31T05:12:45.432Z,16.20
2022-08-31T05:15:14.895Z,16.30
2022-08-31T05:17:43.332Z,16.30
2022-08-31T05:20:12.035Z,16.30
2022-08-31T05:22:41.741Z,16.30
2022-08-31T05:25:10.599Z,16.30
2022-08-31T05:27:41.312Z,16.30
2022-08-31T05:30:11.014Z,16.30
2022-08-31T05:32:45.800Z,16.30
2022-08-31T05:35:14.733Z,16.30
2022-08-31T05:37:45.329Z,16.30
2022-08-31T05:40:14.217Z,16.40
2022-08-31T05:42:44.028Z,16.40
2022-08-31T05:45:12.604Z,16.40
2022-08-31T05:47:42.775Z,16.50
2022-08-31T05:50:11.824Z,16.60
2022-08-31T05:52:43.150Z,16.60
2022-08-31T05:55:12.574Z,16.80
2022-08-31T05:57:45.255Z,17.00
2022-08-31T06:00:14.247Z,17.00
2022-08-31T06:02:47.388Z,17.40
2022-08-31T06:05:17.925Z,17.80
2022-08-31T06:07:48.965Z,17.90
2022-08-31T06:10:19.462Z,17.90
2022-08-31T06:12:50.087Z,17.90
2022-08-31T06:15:20.151Z,17.70
2022-08-31T06:17:48.838Z,17.70
2022-08-31T06:20:18.342Z,17.70
2022-08-31T06:22:48.264Z,17.80
2022-08-31T06:25:41.389Z,18.30
2022-08-31T06:28:14.431Z,18.20
2022-08-31T06:30:54.756Z,18.10
2022-08-31T06:33:24.233Z,18.20
2022-08-31T06:36:04.391Z,18.30
2022-08-31T06:38:54.129Z,18.20
2022-08-31T06:41:40.491Z,18.00
2022-08-31T06:44:42.872Z,18.20
2022-08-31T06:47:19.677Z,18.30
2022-08-31T06:49:50.626Z,18.10
2022-08-31T06:52:20.403Z,18.30
2022-08-31T06:55:07.518Z,18.30
2022-08-31T06:57:59.275Z,18.30
2022-08-31T07:00:36.597Z,18.40
2022-08-31T07:03:34.197Z,18.40
2022-08-31T07:06:08.274Z,18.30
2022-08-31T07:08:38.576Z,18.40
2022-08-31T07:11:14.226Z,18.50
2022-08-31T07:13:43.483Z,18.70
2022-08-31T07:16:17.469Z,18.70
2022-08-31T07:18:47.310Z,18.70
2022-08-31T07:21:19.910Z,18.80
2022-08-31T07:23:50.391Z,18.90
2022-08-31T07:26:24.264Z,18.80
2022-08-31T07:28:53.652Z,19.00
2022-08-31T07:31:26.495Z,19.20
2022-08-31T07:33:57.404Z,19.00
2022-08-31T07:36:27.692Z,18.90
2022-08-31T07:39:38.230Z,18.90
2022-08-31T07:42:11.180Z,18.80
2022-08-31T07:44:41.596Z,19.00
2022-08-31T07:47:13.427Z,19.00
2022-08-31T07:49:47.932Z,18.80
2022-08-31T07:52:33.963Z,18.80
2022-08-31T07:55:12.003Z,18.70
2022-08-31T07:57:55.364Z,18.60
2022-08-31T08:00:25.832Z,18.60
2022-08-31T08:02:56.298Z,18.60
2022-08-31T08:05:35.533Z,18.60
2022-08-31T08:08:25.283Z,18.50
2022-08-31T08:11:01.812Z,18.40
2022-08-31T08:14:07.914Z,18.30
2022-08-31T08:17:00.363Z,18.30
2022-08-31T08:19:43.611Z,18.20
2022-08-31T08:22:12.414Z,18.00
2022-08-31T08:25:08.655Z,18.10
2022-08-31T08:27:45.322Z,18.20
2022-08-31T08:30:28.406Z,18.20
2022-08-31T08:33:04.145Z,18.20
2022-08-31T08:35:37.451Z,18.20
2022-08-31T08:38:07.992Z,18.20
2022-08-31T08:40:42.626Z,18.10
2022-08-31T08:43:14.810Z,18.10
2022-08-31T08:45:45.902Z,18.10
2022-08-31T08:48:21.143Z,17.90
2022-08-31T08:50:53.526Z,17.70
2022-08-31T08:53:39.174Z,17.60
2022-08-31T08:56:35.807Z,17.50
2022-08-31T08:59:09.897Z,17.30
2022-08-31T09:01:47.926Z,17.40
2022-08-31T09:04:32.789Z,17.30
2022-08-31T09:07:27.315Z,17.30
2022-08-31T09:10:06.891Z,17.40
2022-08-31T09:12:47.110Z,17.50
2022-08-31T09:15:36.859Z,17.50
2022-08-31T09:18:24.959Z,17.50
2022-08-31T09:21:11.859Z,17.50
2022-08-31T09:23:44.329Z,17.70
2022-08-31T09:26:18.001Z,17.80
2022-08-31T09:29:14.063Z,17.80
2022-08-31T09:31:46.699Z,17.80
2022-08-31T09:34:29.473Z,17.90
2022-08-31T09:37:16.417Z,18.00
2022-08-31T09:39:48.742Z,17.90
2022-08-31T09:42:31.478Z,17.90
2022-08-31T09:45:04.067Z,17.80
2022-08-31T09:47:48.611Z,17.90
2022-08-31T09:50:31.778Z,18.00
2022-08-31T09:53:34.279Z,18.10
2022-08-31T09:56:17.213Z,18.30
2022-08-31T09:58:52.043Z,18.60
2022-08-31T10:01:25.758Z,18.80
2022-08-31T10:04:16.190Z,19.20
2022-08-31T10:06:51.938Z,19.60
2022-08-31T10:09:28.611Z,19.40
2022-08-31T10:12:04.526Z,19.20
2022-08-31T10:14:39.180Z,19.30
2022-08-31T10:17:15.395Z,19.30
2022-08-31T10:19:57.088Z,19.30
2022-08-31T10:22:34.686Z,19.30
2022-08-31T10:25:15.570Z,19.60
2022-08-31T10:27:49.088Z,19.60
2022-08-31T10:30:27.674Z,19.90
2022-08-31T10:33:02.247Z,19.80
2022-08-31T10:35:38.143Z,19.60
2022-08-31T10:38:24.198Z,19.70
2022-08-31T10:41:00.409Z,19.90
2022-08-31T10:43:38.719Z,19.80
2022-08-31T10:46:07.863Z,19.70
2022-08-31T10:48:44.299Z,19.90
2022-08-31T10:51:20.476Z,20.00
2022-08-31T10:54:08.237Z,20.20
2022-08-31T10:56:44.257Z,20.30
2022-08-31T10:59:27.408Z,20.40
2022-08-31T11:02:05.741Z,20.40
2022-08-31T11:04:59.010Z,20.60
2022-08-31T11:07:37.898Z,20.50
2022-08-31T11:10:20.078Z,20.30
2022-08-31T11:12:55.085Z,20.30
2022-08-31T11:15:45.158Z,20.50
2022-08-31T11:18:42.575Z,20.70
2022-08-31T11:21:48.137Z,20.50
2022-08-31T11:24:37.651Z,20.80
2022-08-31T11:27:11.959Z,20.80
2022-08-31T11:29:44.050Z,20.40
2022-08-31T11:32:24.551Z,20.10
2022-08-31T11:34:55.205Z,20.20
2022-08-31T11:37:56.705Z,20.10
2022-08-31T11:41:11.043Z,20.10
2022-08-31T11:43:52.527Z,20.10
2022-08-31T11:46:44.169Z,20.10
2022-08-31T11:49:39.514Z,20.10
2022-08-31T11:52:14.722Z,20.20
2022-08-31T11:55:27.211Z,20.10
2022-08-31T11:58:21.225Z,20.20
2022-08-31T12:00:54.144Z,20.30
2022-08-31T12:03:55.850Z,20.30
2022-08-31T12:07:07.262Z,20.40
2022-08-31T12:10:11.257Z,20.30
2022-08-31T12:13:18.832Z,20.20
2022-08-31T12:16:04.263Z,20.20
2022-08-31T12:18:52.701Z,20.00
2022-08-31T12:21:47.467Z,20.20
2022-08-31T12:24:29.717Z,20.30
2022-08-31T12:27:19.996Z,20.50
2022-08-31T12:29:50.010Z,20.40
2022-08-31T12:32:28.513Z,20.30
2022-08-31T12:35:06.330Z,20.30
2022-08-31T12:37:37.107Z,20.30
2022-08-31T12:40:21.007Z,20.30
2022-08-31T12:43:09.377Z,20.50
2022-08-31T12:46:06.214Z,20.80
2022-08-31T12:48:57.617Z,20.90
2022-08-31T12:51:40.529Z,21.00
2022-08-31T12:54:27.831Z,20.90
2022-08-31T12:57:05.812Z,21.00
2022-08-31T13:00:00.107Z,21.00
2022-08-31T13:02:32.984Z,21.20
2022-08-31T13:05:02.059Z,21.20
2022-08-31T13:07:33.395Z,21.20
2022-08-31T13:10:11.873Z,21.20
2022-08-31T13:12:40.543Z,21.20
2022-08-31T13:15:24.382Z,21.10
2022-08-31T13:17:53.748Z,21.00
2022-08-31T13:20:29.964Z,21.20
2022-08-31T13:23:02.636Z,21.40
2022-08-31T13:25:38.408Z,21.50
2022-08-31T13:28:18.931Z,21.40
2022-08-31T13:31:02.781Z,21.20
2022-08-31T13:33:35.108Z,21.30
2022-08-31T13:36:08.116Z,21.40
2022-08-31T13:38:44.823Z,21.30
2022-08-31T13:41:24.627Z,21.30
2022-08-31T13:44:01.337Z,21.20
2022-08-31T13:46:44.317Z,21.20
2022-08-31T13:49:35.572Z,21.40
2022-08-31T13:52:07.120Z,21.60
2022-08-31T13:54:38.462Z,21.70
2022-08-31T13:57:20.704Z,21.70
2022-08-31T13:59:49.981Z,21.70
2022-08-31T14:02:37.431Z,21.70
2022-08-31T14:05:13.041Z,21.70
2022-08-31T14:08:02.361Z,21.80
2022-08-31T14:10:35.662Z,21.90
2022-08-31T14:13:12.152Z,21.80
2022-08-31T14:15:45.899Z,21.70
2022-08-31T14:18:24.900Z,21.60
2022-08-31T14:21:24.424Z,21.60
2022-08-31T14:24:01.725Z,21.70
2022-08-31T14:26:33.595Z,21.80
2022-08-31T14:29:10.949Z,21.80
2022-08-31T14:31:45.482Z,21.70
2022-08-31T14:34:25.123Z,21.70
2022-08-31T14:36:58.257Z,21.50
2022-08-31T14:39:31.998Z,21.30
2022-08-31T14:42:03.203Z,21.00
2022-08-31T14:44:33.792Z,20.90
2022-08-31T14:47:02.808Z,20.80
2022-08-31T14:49:36.354Z,20.80
2022-08-31T14:52:06.777Z,20.70
2022-08-31T14:54:37.459Z,20.70
2022-08-31T14:57:12.344Z,20.60
2022-08-31T14:59:44.868Z,20.60
2022-08-31T15:02:16.732Z,20.60
2022-08-31T15:04:48.768Z,20.70
2022-08-31T15:07:18.588Z,20.70
2022-08-31T15:09:50.237Z,20.70
2022-08-31T15:12:19.487Z,20.80
2022-08-31T15:14:49.961Z,21.00
2022-08-31T15:17:21.126Z,21.00
2022-08-31T15:19:55.455Z,21.00
2022-08-31T15:22:26.984Z,21.00
2022-08-31T15:24:56.808Z,21.00
2022-08-31T15:27:29.234Z,21.00
2022-08-31T15:30:04.627Z,21.00
2022-08-31T15:32:33.667Z,20.90
2022-08-31T15:35:04.428Z,20.80
2022-08-31T15:37:33.703Z,20.70
2022-08-31T15:40:05.768Z,20.70
2022-08-31T15:42:39.709Z,20.60
2022-08-31T15:45:10.136Z,20.50
2022-08-31T15:47:58.378Z,20.40
2022-08-31T15:50:31.723Z,20.40
2022-08-31T15:53:08.202Z,20.40
2022-08-31T15:55:41.063Z,20.40
2022-08-31T15:58:12.850Z,20.30
2022-08-31T16:00:42.202Z,20.30
2022-08-31T16:03:11.133Z,20.30
2022-08-31T16:05:44.394Z,20.20
2022-08-31T16:08:14.390Z,20.20
2022-08-31T16:10:46.046Z,20.10
2022-08-31T16:13:16.848Z,20.10
2022-08-31T16:15:52.437Z,20.10
2022-08-31T16:18:22.781Z,20.10
2022-08-31T16:20:53.142Z,20.00
2022-08-31T16:23:24.966Z,20.00
2022-08-31T16:25:54.282Z,20.00
2022-08-31T16:28:23.196Z,19.90
2022-08-31T16:30:52.758Z,19.80
2022-08-31T16:33:22.312Z,19.70
2022-08-31T16:35:52.272Z,19.70
2022-08-31T16:38:21.290Z,19.70
2022-08-31T16:40:50.343Z,19.50
2022-08-31T16:43:18.991Z,19.50
2022-08-31T16:45:49.325Z,19.40
2022-08-31T16:48:35.629Z,19.40
2022-08-31T16:51:10.880Z,19.30
2022-08-31T16:53:39.467Z,19.30
2022-08-31T16:56:08.766Z,19.20
2022-08-31T16:58:51.830Z,19.20
2022-08-31T17:01:23.977Z,19.10
2022-08-31T17:03:56.976Z,19.10
2022-08-31T17:06:29.607Z,19.00
2022-08-31T17:09:01.869Z,19.00
2022-08-31T17:11:35.639Z,18.90
2022-08-31T17:14:06.239Z,18.90
2022-08-31T17:16:37.076Z,18.80
2022-08-31T17:19:10.786Z,18.80
2022-08-31T17:21:48.131Z,18.70
2022-08-31T17:24:23.394Z,18.70
2022-08-31T17:26:53.733Z,18.60
2022-08-31T17:29:23.841Z,18.50
2022-08-31T17:31:53.742Z,18.40
2022-08-31T17:34:27.218Z,18.40
2022-08-31T17:36:59.581Z,18.30
2022-08-31T17:39:29.745Z,18.20
2022-08-31T17:41:59.280Z,18.20
2022-08-31T17:44:31.197Z,18.10
2022-08-31T17:47:02.090Z,18.10
2022-08-31T17:49:37.900Z,18.00
2022-08-31T17:52:09.279Z,18.00
2022-08-31T17:54:40.397Z,17.90
2022-08-31T17:57:11.924Z,17.90
2022-08-31T17:59:43.933Z,17.90
2022-08-31T18:02:16.737Z,17.80
2022-08-31T18:04:45.946Z,17.80
2022-08-31T18:07:16.280Z,17.80
2022-08-31T18:09:47.437Z,17.70
2022-08-31T18:12:18.222Z,17.70
2022-08-31T18:14:50.310Z,17.60
2022-08-31T18:17:21.853Z,17.50
2022-08-31T18:19:51.164Z,17.40
2022-08-31T18:22:22.103Z,17.40
2022-08-31T18:24:51.213Z,17.30
2022-08-31T18:27:20.970Z,17.30
2022-08-31T18:29:50.314Z,17.30
2022-08-31T18:32:19.630Z,17.20
2022-08-31T18:34:52.104Z,17.10
2022-08-31T18:37:25.803Z,17.10
2022-08-31T18:40:13.136Z,17.10
2022-08-31T18:42:59.937Z,17.00
2022-08-31T18:45:31.047Z,16.90
2022-08-31T18:50:50.943Z,16.90
2022-08-31T18:53:28.837Z,16.90
2022-08-31T18:56:05.970Z,16.80
2022-08-31T18:58:35.860Z,16.80
2022-08-31T19:01:10.486Z,16.70
2022-08-31T19:03:41.535Z,16.70
2022-08-31T19:06:17.578Z,16.70
2022-08-31T19:08:48.263Z,16.70
2022-08-31T19:11:17.238Z,16.60
2022-08-31T19:13:46.739Z,16.50
2022-08-31T19:16:19.986Z,16.50
2022-08-31T19:18:50.034Z,16.50
2022-08-31T19:21:21.153Z,16.40
2022-08-31T19:23:52.039Z,16.40
2022-08-31T19:26:23.048Z,16.40
2022-08-31T19:28:52.679Z,16.40
2022-08-31T19:31:23.337Z,16.40
2022-08-31T19:33:57.290Z,16.30
2022-08-31T19:36:27.837Z,16.20
2022-08-31T19:38:59.703Z,16.20
2022-08-31T19:41:29.777Z,16.10
2022-08-31T19:44:09.030Z,16.10
2022-08-31T19:46:39.530Z,16.10
2022-08-31T19:49:09.729Z,16.10
2022-08-31T19:51:40.170Z,16.00
2022-08-31T19:54:12.374Z,16.00
2022-08-31T19:56:43.012Z,16.00
2022-08-31T19:59:13.225Z,16.00
2022-08-31T20:01:41.908Z,16.00
2022-08-31T20:04:16.725Z,16.00
2022-08-31T20:06:46.511Z,15.90
2022-08-31T20:09:17.280Z,15.90
2022-08-31T20:11:47.652Z,15.90
2022-08-31T20:14:17.063Z,15.80
2022-08-31T20:16:46.665Z,15.80
2022-08-31T20:19:19.031Z,15.70
2022-08-31T20:21:49.358Z,15.70
2022-08-31T20:24:19.152Z,15.60
2022-08-31T20:26:51.936Z,15.50
2022-08-31T20:29:21.699Z,15.50
2022-08-31T20:31:52.448Z,15.50
2022-08-31T20:34:23.001Z,15.50
2022-08-31T20:36:58.460Z,15.50
2022-08-31T20:39:31.929Z,15.50
2022-08-31T20:42:03.372Z,15.50
2022-08-31T20:44:34.987Z,15.40
2022-08-31T20:47:24.204Z,15.40
2022-08-31T20:49:55.249Z,15.30
2022-08-31T20:52:25.939Z,15.30
2022-08-31T20:55:01.362Z,15.20
2022-08-31T20:57:34.115Z,15.20
2022-08-31T21:00:04.224Z,15.20
2022-08-31T21:02:38.089Z,15.20
2022-08-31T21:05:36.479Z,15.20
2022-08-31T21:07:57.311Z,15.10
2022-08-31T21:10:37.396Z,15.10
2022-08-31T21:13:12.675Z,15.10
2022-08-31T21:15:43.117Z,15.10
2022-08-31T21:18:12.057Z,15.10
2022-08-31T21:20:41.040Z,15.00
2022-08-31T21:23:10.607Z,15.00
2022-08-31T21:25:45.299Z,15.00
2022-08-31T21:28:15.746Z,15.00
2022-08-31T21:30:46.776Z,15.00
2022-08-31T21:33:15.400Z,14.90
2022-08-31T21:35:43.867Z,14.90
2022-08-31T21:38:13.180Z,14.90
2022-08-31T21:40:50.276Z,14.90
2022-08-31T21:43:19.306Z,14.80
2022-08-31T21:45:48.268Z,14.80
2022-08-31T21:48:25.732Z,14.90
2022-08-31T21:50:55.565Z,14.80
2022-08-31T21:53:25.988Z,14.80
2022-08-31T21:55:55.948Z,14.90
2022-08-31T21:58:24.568Z,14.80
2022-08-31T22:00:55.560Z,14.80
2022-08-31T22:03:24.067Z,14.80
2022-08-31T22:05:53.362Z,14.70
2022-08-31T22:08:24.088Z,14.70
2022-08-31T22:10:52.597Z,14.60
2022-08-31T22:13:22.460Z,14.50
2022-08-31T22:15:52.017Z,14.40
2022-08-31T22:19:21.691Z,14.30
2022-08-31T22:21:09.762Z,14.40
2022-08-31T22:23:38.498Z,14.40
2022-08-31T22:26:07.140Z,14.30
2022-08-31T22:28:37.613Z,14.30
2022-08-31T22:31:07.531Z,14.30
2022-08-31T22:33:37.462Z,14.20
2022-08-31T22:36:19.147Z,14.20
2022-08-31T22:39:03.270Z,14.20
2022-08-31T22:41:32.905Z,14.20
2022-08-31T22:44:02.867Z,14.20
2022-08-31T22:46:31.393Z,14.20
2022-08-31T22:49:00.234Z,14.20
2022-08-31T22:51:28.883Z,14.10
2022-08-31T22:53:57.734Z,14.10
2022-08-31T22:56:28.601Z,14.10
2022-08-31T22:58:59.300Z,14.00
2022-08-31T23:01:32.688Z,14.00
2022-08-31T23:04:06.776Z,14.00
2022-08-31T23:06:37.283Z,13.90
2022-08-31T23:09:08.304Z,13.90
2022-08-31T23:11:37.469Z,13.90
2022-08-31T23:14:08.663Z,13.90
2022-08-31T23:16:40.642Z,13.90
2022-08-31T23:19:12.440Z,13.80
2022-08-31T23:21:47.779Z,13.80
2022-08-31T23:24:24.414Z,13.70
2022-08-31T23:26:53.751Z,13.70
2022-08-31T23:29:22.316Z,13.70
2022-08-31T23:31:52.915Z,13.60
2022-08-31T23:34:22.696Z,13.60
2022-08-31T23:36:53.330Z,13.60
2022-08-31T23:39:24.782Z,13.50
2022-08-31T23:41:53.727Z,13.60
2022-08-31T23:44:23.132Z,13.50
2022-08-31T23:46:53.150Z,13.50
2022-08-31T23:49:22.460Z,13.40
2022-08-31T23:51:51.104Z,13.40
2022-08-31T23:54:20.971Z,13.30
2022-08-31T23:56:52.262Z,13.30
2022-08-31T23:59:21.645Z,13.30
